Time;durP1;ratioP1;P1;durP2;ratioP2;P2;SDS_P1;SDS_P2;PMS_P1;PMS_P2;Temp;Humidity;BMP_temperature;BMP_pressure;BME280_temperature;BME280_humidity;BME280_pressure;Samples;Min_cycle;Max_cycle;Signal;HPM_P1;HPM_P2
2022/05/31 00:00:18;;;;;;;3.20;2.50;;;16.00;46.80;;;;;;5052731;28;20573;-88
2022/05/31 00:02:46;;;;;;;3.33;2.47;;;16.00;46.50;;;;;;5057040;28;20451;-88
2022/05/31 00:05:14;;;;;;;4.37;2.67;;;16.00;46.70;;;;;;5061375;28;20459;-88
2022/05/31 00:07:42;;;;;;;4.70;2.57;;;15.90;46.90;;;;;;5078361;28;21064;-90
2022/05/31 00:10:11;;;;;;;3.20;2.90;;;15.90;46.80;;;;;;5074037;28;20474;-88
2022/05/31 00:12:40;;;;;;;2.80;2.40;;;15.90;46.60;;;;;;5085889;28;20881;-89
2022/05/31 00:15:09;;;;;;;3.30;2.60;;;15.90;46.70;;;;;;5079638;28;20459;-89
2022/05/31 00:17:36;;;;;;;2.40;2.00;;;15.90;46.60;;;;;;5075284;28;20455;-88
2022/05/31 00:20:04;;;;;;;3.20;2.83;;;15.90;46.80;;;;;;5074991;28;21481;-88
2022/05/31 00:22:34;;;;;;;2.80;1.97;;;15.80;46.80;;;;;;5091211;28;20443;-90
2022/05/31 00:25:02;;;;;;;4.80;2.80;;;15.70;46.80;;;;;;5073933;28;20443;-89
2022/05/31 00:27:29;;;;;;;3.23;2.87;;;15.60;47.30;;;;;;5078721;28;20455;-89
2022/05/31 00:29:58;;;;;;;3.30;2.63;;;15.60;46.80;;;;;;5056191;28;20479;-88
2022/05/31 00:32:28;;;;;;;2.33;2.13;;;15.60;46.90;;;;;;5063108;28;20530;-89
2022/05/31 00:34:57;;;;;;;3.30;2.30;;;15.60;46.70;;;;;;5077741;28;20443;-89
2022/05/31 00:37:24;;;;;;;3.70;2.67;;;15.60;46.80;;;;;;5076195;28;21000;-87
2022/05/31 00:39:51;;;;;;;2.57;2.37;;;15.60;46.80;;;;;;5060023;28;20470;-88
2022/05/31 00:42:21;;;;;;;2.40;2.20;;;15.50;47.00;;;;;;5068771;28;20462;-88
2022/05/31 00:44:49;;;;;;;3.77;2.87;;;15.50;46.90;;;;;;5095457;28;20427;-88
2022/05/31 00:47:24;;;;;;;2.83;2.50;;;15.50;47.30;;;;;;5058443;28;20460;-88
2022/05/31 00:49:54;;;;;;;2.53;2.33;;;15.50;47.20;;;;;;5076214;28;20481;-88
2022/05/31 00:52:27;;;;;;;2.33;2.10;;;15.50;47.10;;;;;;5076626;28;20465;-89
2022/05/31 00:55:00;;;;;;;2.60;2.40;;;15.50;46.90;;;;;;5045228;28;20443;-87
2022/05/31 00:57:28;;;;;;;2.97;2.53;;;15.40;46.90;;;;;;5086574;28;20464;-88
2022/05/31 01:00:00;;;;;;;9.73;2.50;;;15.40;46.80;;;;;;5054002;28;20470;-89
2022/05/31 01:02:28;;;;;;;2.80;2.50;;;15.40;47.20;;;;;;5063817;28;20467;-88
2022/05/31 01:05:00;;;;;;;4.20;2.37;;;15.40;47.50;;;;;;5042791;28;20440;-88
2022/05/31 01:07:28;;;;;;;3.30;3.00;;;15.40;47.30;;;;;;5092528;28;20799;-88
2022/05/31 01:09:55;;;;;;;3.17;2.60;;;15.40;47.50;;;;;;5059858;28;20555;-88
2022/05/31 01:12:43;;;;;;;3.30;3.00;;;15.30;47.70;;;;;;5076821;28;20922;-89
2022/05/31 01:15:29;;;;;;;3.40;2.97;;;15.40;48.00;;;;;;5065560;28;20451;-88
2022/05/31 01:18:17;;;;;;;2.80;2.60;;;15.30;48.30;;;;;;5063116;28;21116;-88
2022/05/31 01:21:04;;;;;;;3.07;2.77;;;15.40;48.60;;;;;;5093658;28;20467;-90
2022/05/31 01:23:48;;;;;;;8.97;2.87;;;15.30;48.50;;;;;;5043271;28;20438;-89
2022/05/31 01:26:24;;;;;;;4.00;2.70;;;15.30;48.50;;;;;;5065953;28;20451;-88
2022/05/31 01:29:00;;;;;;;2.53;2.33;;;15.30;48.40;;;;;;5075359;28;20570;-87
2022/05/31 01:31:31;;;;;;;4.87;3.37;;;15.30;48.40;;;;;;5078171;28;20533;-88
2022/05/31 01:34:05;;;;;;;3.70;2.83;;;15.30;48.40;;;;;;5074799;28;20733;-86
2022/05/31 01:36:39;;;;;;;3.20;2.80;;;15.20;48.50;;;;;;5067839;28;20946;-87
2022/05/31 01:39:14;;;;;;;4.93;2.40;;;15.20;48.40;;;;;;5061852;28;20561;-88
2022/05/31 01:41:47;;;;;;;3.13;2.80;;;15.10;48.20;;;;;;5076239;28;20482;-88
2022/05/31 01:44:18;;;;;;;4.20;2.83;;;15.10;48.00;;;;;;5075107;28;20454;-88
2022/05/31 01:46:46;;;;;;;5.60;2.93;;;15.10;48.00;;;;;;5076580;28;20448;-88
2022/05/31 01:49:16;;;;;;;5.00;2.90;;;15.00;48.20;;;;;;5078469;28;21091;-88
2022/05/31 01:51:46;;;;;;;3.17;2.97;;;15.00;48.50;;;;;;5084846;28;20522;-88
2022/05/31 01:54:18;;;;;;;2.60;2.40;;;14.90;49.00;;;;;;5058249;28;20454;-90
2022/05/31 01:56:49;;;;;;;4.43;2.47;;;14.90;49.00;;;;;;5065119;28;20456;-89
2022/05/31 01:59:17;;;;;;;2.70;2.50;;;14.90;48.90;;;;;;5046060;28;20908;-88
2022/05/31 02:01:46;;;;;;;2.90;2.63;;;14.90;48.70;;;;;;5057380;28;20476;-89
2022/05/31 02:04:15;;;;;;;4.87;3.00;;;14.90;48.80;;;;;;5041870;28;20443;-89
2022/05/31 02:06:42;;;;;;;3.10;2.77;;;14.80;48.80;;;;;;5063558;28;20462;-89
2022/05/31 02:09:13;;;;;;;3.30;2.97;;;14.80;49.20;;;;;;5049173;28;20487;-89
2022/05/31 02:11:43;;;;;;;10.33;2.97;;;14.80;48.90;;;;;;5045747;28;20443;-88
2022/05/31 02:14:20;;;;;;;3.40;3.10;;;14.80;48.70;;;;;;5065424;28;20455;-88
2022/05/31 02:16:47;;;;;;;3.37;3.07;;;14.80;48.80;;;;;;5084509;28;20452;-89
2022/05/31 02:19:49;;;;;;;3.10;2.80;;;14.70;49.10;;;;;;4985653;28;20561;-89
2022/05/31 02:22:30;;;;;;;6.00;3.30;;;14.70;48.80;;;;;;5058081;28;21269;-89
2022/05/31 02:24:58;;;;;;;3.93;2.83;;;14.70;49.10;;;;;;5081781;28;20435;-87
2022/05/31 02:27:25;;;;;;;3.50;3.20;;;14.70;49.40;;;;;;5066074;28;20454;-88
2022/05/31 02:29:53;;;;;;;2.97;2.77;;;14.70;49.50;;;;;;5067261;28;20545;-89
2022/05/31 02:32:20;;;;;;;4.13;2.10;;;14.70;49.40;;;;;;5057183;28;20487;-88
2022/05/31 02:34:49;;;;;;;3.00;2.77;;;14.70;49.20;;;;;;5050355;28;20440;-89
2022/05/31 02:37:20;;;;;;;3.90;2.60;;;14.70;49.40;;;;;;5064865;28;21466;-89
2022/05/31 02:39:48;;;;;;;3.37;3.07;;;14.70;49.40;;;;;;5059354;28;20456;-89
2022/05/31 02:42:18;;;;;;;3.60;3.03;;;14.80;49.40;;;;;;5061264;28;20482;-89
2022/05/31 02:44:46;;;;;;;5.83;3.50;;;14.70;49.30;;;;;;5089830;28;20530;-88
2022/05/31 02:47:13;;;;;;;2.93;2.63;;;14.80;49.20;;;;;;5073999;28;20506;-90
2022/05/31 02:49:41;;;;;;;2.70;2.50;;;14.70;49.20;;;;;;5075076;28;20482;-89
2022/05/31 02:52:08;;;;;;;3.33;3.03;;;14.70;49.50;;;;;;5063911;28;20440;-89
2022/05/31 02:54:36;;;;;;;3.57;3.23;;;14.70;49.50;;;;;;5064081;28;21200;-89
2022/05/31 02:57:33;;;;;;;3.50;2.53;;;14.80;49.30;;;;;;5002653;28;20454;-88
2022/05/31 03:00:19;;;;;;;2.60;2.40;;;14.70;49.20;;;;;;5071541;28;20458;-88
2022/05/31 03:03:22;;;;;;;3.03;2.73;;;14.60;49.30;;;;;;4991787;28;20501;-88
2022/05/31 03:06:07;;;;;;;3.70;2.67;;;14.60;49.20;;;;;;5075899;28;21087;-90
2022/05/31 03:08:42;;;;;;;3.63;2.50;;;14.50;49.40;;;;;;5061592;28;21152;-89
2022/05/31 03:11:18;;;;;;;3.00;2.80;;;14.50;49.40;;;;;;5060082;28;20463;-88
2022/05/31 03:13:48;;;;;;;3.00;2.73;;;14.50;49.80;;;;;;5062660;28;20457;-88
2022/05/31 03:16:16;;;;;;;3.37;3.07;;;14.50;49.70;;;;;;5073028;28;20540;-88
2022/05/31 03:18:50;;;;;;;3.13;2.83;;;14.50;49.60;;;;;;5075676;28;20467;-89
2022/05/31 03:21:22;;;;;;;4.03;3.40;;;14.50;49.50;;;;;;5064851;28;20959;-88
2022/05/31 03:23:53;;;;;;;4.03;2.97;;;14.50;49.60;;;;;;5050426;28;20478;-89
2022/05/31 03:26:23;;;;;;;4.20;3.43;;;14.40;49.60;;;;;;5067391;28;20441;-87
2022/05/31 03:28:51;;;;;;;4.50;3.80;;;14.40;49.80;;;;;;5077993;28;20465;-87
2022/05/31 03:31:19;;;;;;;4.90;3.23;;;14.30;49.90;;;;;;5037684;28;20477;-88
2022/05/31 03:33:46;;;;;;;3.90;3.50;;;14.30;50.30;;;;;;5065271;28;20473;-88
2022/05/31 03:36:14;;;;;;;3.07;2.77;;;14.30;50.20;;;;;;5064559;28;20455;-88
2022/05/31 03:38:48;;;;;;;2.83;2.63;;;14.30;50.00;;;;;;5056531;28;20467;-88
2022/05/31 03:41:15;;;;;;;4.03;3.40;;;14.30;49.70;;;;;;5074977;28;21060;-88
2022/05/31 03:43:45;;;;;;;4.13;3.27;;;14.30;49.90;;;;;;5060352;28;20451;-88
2022/05/31 03:46:23;;;;;;;3.80;3.20;;;14.20;49.60;;;;;;5072439;28;20534;-88
2022/05/31 03:49:10;;;;;;;2.70;2.50;;;14.20;49.40;;;;;;5089686;28;20478;-89
2022/05/31 03:51:46;;;;;;;3.80;3.50;;;13.90;49.90;;;;;;5063101;28;20486;-89
2022/05/31 03:54:21;;;;;;;2.63;2.43;;;13.90;49.90;;;;;;5048705;28;20435;-88
2022/05/31 03:57:16;;;;;;;4.60;3.23;;;14.00;49.80;;;;;;5082397;28;20522;-89
2022/05/31 03:59:46;;;;;;;3.93;3.13;;;14.00;49.70;;;;;;5072594;28;21065;-89
2022/05/31 04:02:15;;;;;;;3.43;2.67;;;14.00;49.40;;;;;;5081218;28;20503;-89
2022/05/31 04:04:42;;;;;;;2.93;2.67;;;14.00;49.00;;;;;;5044626;28;20524;-89
2022/05/31 04:07:09;;;;;;;4.80;3.50;;;14.00;48.70;;;;;;5072397;28;20499;-88
2022/05/31 04:09:37;;;;;;;3.40;3.07;;;14.00;49.40;;;;;;5078596;28;20475;-88
2022/05/31 04:12:08;;;;;;;3.50;3.10;;;14.00;49.70;;;;;;5047906;28;20857;-88
2022/05/31 04:14:54;;;;;;;5.13;3.00;;;13.90;50.20;;;;;;5063064;28;20455;-89
2022/05/31 04:17:22;;;;;;;4.80;3.00;;;13.90;50.00;;;;;;5048283;28;20454;-90
2022/05/31 04:19:50;;;;;;;3.23;2.93;;;13.80;49.70;;;;;;5064274;28;20842;-89
2022/05/31 04:22:17;;;;;;;4.00;2.67;;;13.90;49.70;;;;;;5055813;28;20524;-88
2022/05/31 04:24:44;;;;;;;5.50;3.47;;;13.90;49.80;;;;;;5066739;28;21003;-91
2022/05/31 04:27:30;;;;;;;3.20;2.80;;;13.90;49.70;;;;;;5076758;28;20766;-88
2022/05/31 04:30:16;;;;;;;4.57;2.70;;;14.00;49.70;;;;;;5063872;28;20487;-89
2022/05/31 04:33:04;;;;;;;2.60;2.40;;;14.00;49.90;;;;;;5073232;28;20444;-89
2022/05/31 04:35:36;;;;;;;4.23;2.83;;;14.00;49.50;;;;;;5039668;28;20451;-88
2022/05/31 04:38:03;;;;;;;5.43;3.20;;;14.10;49.50;;;;;;5088608;28;20509;-88
2022/05/31 04:40:54;;;;;;;2.80;2.60;;;14.10;49.40;;;;;;5053412;28;20465;-88
2022/05/31 04:43:46;;;;;;;3.30;3.00;;;14.10;49.70;;;;;;5044182;28;21340;-89
2022/05/31 04:46:19;;;;;;;2.93;2.63;;;14.00;50.20;;;;;;5080774;28;22083;-90
2022/05/31 04:49:02;;;;;;;4.27;2.80;;;14.10;50.00;;;;;;5074841;28;20474;-87
2022/05/31 04:51:32;;;;;;;4.40;2.93;;;14.20;50.00;;;;;;5065420;28;20452;-89
2022/05/31 04:54:00;;;;;;;4.03;2.87;;;14.20;50.00;;;;;;5069718;28;20531;-90
2022/05/31 04:56:47;;;;;;;4.50;3.10;;;14.20;50.10;;;;;;5060907;28;20447;-89
2022/05/31 04:59:14;;;;;;;4.90;3.47;;;14.30;50.10;;;;;;5040943;28;20463;-89
2022/05/31 05:01:42;;;;;;;3.97;3.40;;;14.30;50.10;;;;;;5063566;28;20451;-88
2022/05/31 05:04:18;;;;;;;4.37;3.60;;;14.30;50.20;;;;;;5056251;28;20455;-89
2022/05/31 05:06:54;;;;;;;4.93;3.97;;;14.10;50.60;;;;;;5057244;28;21053;-90
2022/05/31 05:09:23;;;;;;;5.93;3.40;;;14.10;51.10;;;;;;5048426;28;20478;-88
2022/05/31 05:12:13;;;;;;;7.40;3.43;;;14.20;51.40;;;;;;5081382;28;20432;-89
2022/05/31 05:14:44;;;;;;;6.57;3.70;;;14.20;51.40;;;;;;5051244;28;21122;-88
2022/05/31 05:17:17;;;;;;;3.77;3.00;;;14.20;51.20;;;;;;5061330;28;20570;-89
2022/05/31 05:19:49;;;;;;;5.63;3.60;;;14.30;51.30;;;;;;5050955;28;20833;-89
2022/05/31 05:22:16;;;;;;;6.10;3.70;;;14.30;51.40;;;;;;5060225;28;20990;-89
2022/05/31 05:24:43;;;;;;;4.83;3.70;;;14.40;51.50;;;;;;5058221;28;20457;-89
2022/05/31 05:27:29;;;;;;;2.87;2.60;;;14.50;51.50;;;;;;5094993;28;20507;-88
2022/05/31 05:32:48;;;;;;;3.67;3.13;;;14.60;51.30;;;;;;5068750;28;21022;-87
2022/05/31 05:35:29;;;;;;;5.83;3.83;;;14.60;51.30;;;;;;5063859;28;20583;-89
2022/05/31 05:38:09;;;;;;;4.13;3.37;;;14.60;51.30;;;;;;5050026;28;20966;-89
2022/05/31 05:40:56;;;;;;;3.67;3.27;;;14.60;51.50;;;;;;5074839;28;20498;-88
2022/05/31 05:43:31;;;;;;;4.37;3.90;;;14.70;51.70;;;;;;5051650;28;20454;-88
2022/05/31 05:46:01;;;;;;;3.63;3.33;;;14.80;50.80;;;;;;5062984;28;21155;-88
2022/05/31 05:48:28;;;;;;;5.00;3.20;;;14.80;51.40;;;;;;5053455;28;20991;-88
2022/05/31 05:50:56;;;;;;;2.93;2.47;;;14.90;51.30;;;;;;5069734;28;20541;-88
2022/05/31 05:53:42;;;;;;;4.53;2.90;;;15.00;50.80;;;;;;5092016;28;21037;-88
2022/05/31 05:56:44;;;;;;;6.67;3.37;;;14.80;50.70;;;;;;5009766;28;20861;-88
2022/05/31 05:59:30;;;;;;;3.80;2.70;;;14.70;51.50;;;;;;5070884;28;20459;-90
2022/05/31 06:02:33;;;;;;;4.13;2.73;;;15.00;51.50;;;;;;5073280;28;20494;-88
2022/05/31 06:05:24;;;;;;;3.07;2.80;;;15.10;51.20;;;;;;5077928;28;20541;-89
2022/05/31 06:07:57;;;;;;;3.70;2.90;;;15.50;50.90;;;;;;5076665;28;20455;-88
2022/05/31 06:10:29;;;;;;;3.27;2.87;;;15.70;49.70;;;;;;5061150;28;20467;-88
2022/05/31 06:13:02;;;;;;;3.77;3.10;;;16.00;50.00;;;;;;5063842;28;21109;-88
2022/05/31 06:15:32;;;;;;;3.50;2.93;;;16.20;50.10;;;;;;5059127;28;20527;-88
2022/05/31 06:18:02;;;;;;;4.67;3.00;;;16.40;49.10;;;;;;5067087;28;20449;-86
2022/05/31 06:20:30;;;;;;;4.07;3.67;;;16.40;48.90;;;;;;5058700;28;20459;-87
2022/05/31 06:23:00;;;;;;;4.40;3.47;;;16.40;48.70;;;;;;5063744;28;20466;-88
2022/05/31 06:25:28;;;;;;;4.93;3.27;;;16.30;48.80;;;;;;5061522;28;21170;-87
2022/05/31 06:27:59;;;;;;;6.57;3.37;;;16.30;48.60;;;;;;5053899;28;20448;-88
2022/05/31 06:30:28;;;;;;;3.50;3.20;;;16.00;49.10;;;;;;5063394;28;20455;-88
2022/05/31 06:32:56;;;;;;;4.33;2.83;;;16.00;49.50;;;;;;5048670;28;20459;-88
2022/05/31 06:35:24;;;;;;;6.10;3.00;;;16.30;49.80;;;;;;5063698;28;20444;-88
2022/05/31 06:38:02;;;;;;;3.33;3.03;;;16.70;49.20;;;;;;5068190;28;20446;-87
2022/05/31 06:40:30;;;;;;;4.87;3.00;;;16.80;48.10;;;;;;5085065;28;20539;-90
2022/05/31 06:43:07;;;;;;;3.47;2.67;;;16.80;48.60;;;;;;5065574;28;20473;-88
2022/05/31 06:45:52;;;;;;;3.97;2.83;;;16.90;48.40;;;;;;5076807;28;20444;-88
2022/05/31 06:48:38;;;;;;;3.20;2.77;;;16.80;48.80;;;;;;5084541;28;21238;-90
2022/05/31 06:56:47;;;;;;;6.50;2.97;;;16.90;49.10;;;;;;5077873;28;20446;-88
2022/05/31 06:57:25;;;;;;;3.43;3.13;;;17.40;47.90;;;;;;5080159;28;21188;-89
2022/05/31 07:00:09;;;;;;;3.33;2.40;;;17.30;47.80;;;;;;5066300;28;20463;-88
2022/05/31 07:02:36;;;;;;;3.50;2.23;;;17.40;48.80;;;;;;5068544;28;20493;-88
2022/05/31 07:05:04;;;;;;;4.50;2.53;;;17.50;47.60;;;;;;5060125;28;20443;-87
2022/05/31 07:07:31;;;;;;;3.90;2.70;;;17.80;47.80;;;;;;5083858;28;20575;-88
2022/05/31 07:10:06;;;;;;;3.00;2.73;;;17.80;46.90;;;;;;5089490;28;20464;-88
2022/05/31 07:12:59;;;;;;;2.90;2.60;;;17.40;48.40;;;;;;5088158;28;20436;-86
2022/05/31 07:16:00;;;;;;;3.97;2.23;;;17.70;48.50;;;;;;5042883;28;20486;-87
2022/05/31 07:18:57;;;;;;;5.10;3.00;;;18.10;47.70;;;;;;5061819;28;20455;-87
2022/05/31 07:21:27;;;;;;;3.57;2.87;;;18.30;46.40;;;;;;5062992;28;20439;-86
2022/05/31 07:23:54;;;;;;;3.77;3.00;;;18.50;46.40;;;;;;5040534;28;20463;-88
2022/05/31 07:26:24;;;;;;;4.90;3.07;;;18.60;45.80;;;;;;5079300;28;20552;-87
2022/05/31 07:28:54;;;;;;;4.93;2.67;;;18.60;45.10;;;;;;5059284;28;20479;-87
2022/05/31 07:31:21;;;;;;;3.53;2.50;;;18.80;45.30;;;;;;5057042;28;20459;-88
2022/05/31 07:34:00;;;;;;;3.20;2.30;;;18.90;44.90;;;;;;5058860;28;20452;-84
2022/05/31 07:36:27;;;;;;;2.40;2.20;;;18.80;45.40;;;;;;5052108;28;20458;-87
2022/05/31 07:39:06;;;;;;;5.87;3.23;;;18.90;45.80;;;;;;5061360;28;20463;-87
2022/05/31 07:41:35;;;;;;;2.37;2.17;;;19.20;45.20;;;;;;5072656;28;20548;-88
2022/05/31 07:44:03;;;;;;;3.27;2.40;;;19.20;44.60;;;;;;5068051;28;20479;-86
2022/05/31 07:46:30;;;;;;;3.70;2.53;;;19.30;45.00;;;;;;5070939;28;20444;-88
2022/05/31 07:48:59;;;;;;;2.70;2.50;;;19.40;43.60;;;;;;5056004;28;20471;-87
2022/05/31 07:51:42;;;;;;;6.00;3.13;;;19.60;44.00;;;;;;5069360;28;20779;-87
2022/05/31 07:54:31;;;;;;;3.73;2.67;;;19.60;43.00;;;;;;5061541;28;21078;-88
2022/05/31 07:58:30;;;;;;;3.87;3.00;;;19.80;43.50;;;;;;5071791;28;21157;-88
2022/05/31 08:00:29;;;;;;;3.23;2.90;;;19.90;43.10;;;;;;5022758;28;20462;-88
2022/05/31 08:02:57;;;;;;;2.93;2.63;;;20.10;43.90;;;;;;5053972;28;20459;-88
2022/05/31 08:05:24;;;;;;;4.07;2.30;;;20.20;43.10;;;;;;5053131;28;20443;-89
2022/05/31 08:07:51;;;;;;;5.67;4.40;;;20.20;43.50;;;;;;5069734;28;20436;-87
2022/05/31 08:10:20;;;;;;;2.63;2.40;;;20.10;43.00;;;;;;5054226;28;20469;-87
2022/05/31 08:12:48;;;;;;;3.40;2.83;;;20.20;43.20;;;;;;5056511;28;20448;-87
2022/05/31 08:15:16;;;;;;;3.53;3.03;;;20.30;43.90;;;;;;5056159;28;20443;-87
2022/05/31 08:17:46;;;;;;;4.53;2.53;;;20.60;43.90;;;;;;5072519;28;20587;-89
2022/05/31 08:20:16;;;;;;;4.47;2.57;;;20.60;42.80;;;;;;5072859;28;20467;-90
2022/05/31 08:22:44;;;;;;;3.17;2.73;;;20.80;42.60;;;;;;5065740;28;20448;-88
2022/05/31 08:25:12;;;;;;;3.73;3.27;;;20.80;41.80;;;;;;5089598;28;21173;-88
2022/05/31 08:27:39;;;;;;;4.83;3.10;;;20.90;42.20;;;;;;5078823;28;20464;-87
2022/05/31 08:30:08;;;;;;;10.93;3.40;;;21.00;42.40;;;;;;5080649;28;20463;-88
2022/05/31 08:32:36;;;;;;;4.23;2.60;;;21.20;42.80;;;;;;5041425;28;20435;-88
2022/05/31 08:35:05;;;;;;;5.63;3.23;;;21.20;41.70;;;;;;5073930;28;21098;-88
2022/05/31 08:37:32;;;;;;;10.43;3.70;;;21.20;41.00;;;;;;5073356;28;20533;-90
2022/05/31 08:39:59;;;;;;;5.20;2.80;;;21.10;41.40;;;;;;5068602;28;20499;-88
2022/05/31 08:42:37;;;;;;;6.37;2.73;;;21.10;42.40;;;;;;5062806;28;20919;-89
2022/05/31 08:45:12;;;;;;;3.07;2.87;;;21.10;41.80;;;;;;5053519;28;20462;-90
2022/05/31 08:47:44;;;;;;;7.83;2.73;;;20.90;42.20;;;;;;5044247;28;20496;-87
2022/05/31 08:53:19;;;;;;;3.90;2.50;;;21.10;42.30;;;;;;5061201;28;20444;-88
2022/05/31 08:58:44;;;;;;;3.53;2.80;;;21.20;42.80;;;;;;5066376;28;20536;-88
2022/05/31 09:01:17;;;;;;;6.53;2.73;;;21.40;42.70;;;;;;5075328;28;20447;-86
2022/05/31 09:03:48;;;;;;;3.00;2.27;;;21.90;43.30;;;;;;5062829;28;20483;-88
2022/05/31 09:06:21;;;;;;;2.47;2.27;;;22.00;41.90;;;;;;5089491;28;20505;-88
2022/05/31 09:08:54;;;;;;;7.80;2.63;;;22.30;41.40;;;;;;5076710;28;20462;-86
2022/05/31 09:11:23;;;;;;;2.30;2.10;;;22.10;41.20;;;;;;5060268;28;20574;-87
2022/05/31 09:13:55;;;;;;;2.80;2.07;;;22.10;42.10;;;;;;5075788;28;20462;-88
2022/05/31 09:16:37;;;;;;;3.03;2.73;;;22.50;41.80;;;;;;5071568;28;20451;-90
2022/05/31 09:19:06;;;;;;;2.83;2.53;;;23.00;40.30;;;;;;5063951;28;20986;-90
2022/05/31 09:21:38;;;;;;;2.97;2.63;;;23.20;40.70;;;;;;5079122;28;20456;-88
2022/05/31 09:24:08;;;;;;;4.50;3.07;;;23.40;38.00;;;;;;5049369;28;20640;-88
2022/05/31 09:26:51;;;;;;;9.73;2.63;;;23.60;38.60;;;;;;5057854;28;20463;-88
2022/05/31 09:29:21;;;;;;;5.23;2.63;;;23.80;38.80;;;;;;5061697;28;20887;-89
2022/05/31 09:32:04;;;;;;;6.53;3.20;;;24.10;38.70;;;;;;5066447;28;20440;-87
2022/05/31 09:34:53;;;;;;;3.20;3.00;;;24.50;36.50;;;;;;5072651;28;20451;-87
2022/05/31 09:37:37;;;;;;;3.13;2.90;;;24.40;35.00;;;;;;5056983;28;20451;-87
2022/05/31 09:40:25;;;;;;;3.00;2.63;;;23.90;35.80;;;;;;5047277;28;20906;-87
2022/05/31 09:43:00;;;;;;;8.70;2.83;;;23.50;36.40;;;;;;5055957;28;20458;-86
2022/05/31 09:45:33;;;;;;;2.73;2.53;;;23.50;37.90;;;;;;5064543;28;20503;-87
2022/05/31 09:48:05;;;;;;;3.60;3.27;;;23.80;38.30;;;;;;5058995;28;20492;-86
2022/05/31 09:50:33;;;;;;;6.00;2.73;;;24.10;37.00;;;;;;5076365;28;20447;-88
2022/05/31 09:53:00;;;;;;;4.27;2.53;;;24.30;36.20;;;;;;5056712;28;20934;-87
2022/05/31 09:58:42;;;;;;;3.67;2.43;;;24.80;37.10;;;;;;5064637;28;20461;-87
2022/05/31 10:01:24;;;;;;;2.90;2.20;;;24.90;36.40;;;;;;5069380;28;20524;-87
2022/05/31 10:04:14;;;;;;;3.10;2.80;;;25.00;36.00;;;;;;5073147;28;21316;-87
2022/05/31 10:06:54;;;;;;;6.10;2.87;;;25.40;35.70;;;;;;5044471;28;20463;-87
2022/05/31 10:09:25;;;;;;;3.03;2.73;;;25.20;34.30;;;;;;5062607;28;20481;-87
2022/05/31 10:12:14;;;;;;;2.70;2.37;;;25.50;35.90;;;;;;5072886;28;20440;-87
2022/05/31 10:14:44;;;;;;;3.10;2.80;;;25.80;36.20;;;;;;5089959;28;21091;-87
2022/05/31 10:17:34;;;;;;;3.60;2.93;;;25.60;34.90;;;;;;5058634;28;20844;-88
2022/05/31 10:20:19;;;;;;;3.20;3.00;;;25.60;35.70;;;;;;5054695;28;21058;-91
2022/05/31 10:22:56;;;;;;;3.30;3.00;;;25.60;34.80;;;;;;5092444;28;20454;-89
2022/05/31 10:25:45;;;;;;;3.60;3.30;;;25.80;35.80;;;;;;5064941;28;20439;-87
2022/05/31 10:28:30;;;;;;;2.87;2.60;;;26.00;34.30;;;;;;5091909;28;20986;-88
2022/05/31 10:31:03;;;;;;;3.53;3.23;;;26.20;34.60;;;;;;5070379;28;20452;-88
2022/05/31 10:33:40;;;;;;;2.90;2.60;;;26.00;34.30;;;;;;5056548;28;20469;-87
2022/05/31 10:36:16;;;;;;;4.83;2.80;;;25.80;35.40;;;;;;5058363;28;20877;-87
2022/05/31 10:38:45;;;;;;;3.33;2.97;;;25.90;34.90;;;;;;5041857;28;20475;-88
2022/05/31 10:41:21;;;;;;;4.60;2.47;;;25.90;35.00;;;;;;5054355;28;21022;-89
2022/05/31 10:43:52;;;;;;;2.80;2.60;;;26.00;34.80;;;;;;5061505;28;20460;-88
2022/05/31 10:46:26;;;;;;;2.97;2.77;;;25.90;34.80;;;;;;5065580;28;20537;-89
2022/05/31 10:48:55;;;;;;;3.00;2.70;;;25.70;34.90;;;;;;5076260;28;20483;-90
2022/05/31 10:51:35;;;;;;;4.63;3.50;;;25.60;36.20;;;;;;5042637;28;20519;-89
2022/05/31 10:54:22;;;;;;;2.70;2.50;;;25.80;35.60;;;;;;5071884;28;21038;-87
2022/05/31 10:57:00;;;;;;;4.10;2.40;;;25.90;36.00;;;;;;5070782;28;20446;-89
2022/05/31 10:59:36;;;;;;;4.23;2.37;;;25.90;35.00;;;;;;5074061;28;20474;-89
2022/05/31 11:02:55;;;;;;;2.70;2.43;;;25.80;35.00;;;;;;5056421;28;20447;-88
2022/05/31 11:05:30;;;;;;;3.30;2.60;;;26.00;34.10;;;;;;4996315;28;20510;-87
2022/05/31 11:13:59;;;;;;;3.60;2.30;;;26.60;34.30;;;;;;5063747;28;20432;-88
2022/05/31 11:16:44;;;;;;;2.80;2.27;;;26.70;33.50;;;;;;5074601;28;20451;-87
2022/05/31 11:19:33;;;;;;;4.23;2.53;;;27.00;34.40;;;;;;5063924;28;21301;-89
2022/05/31 11:22:19;;;;;;;3.10;2.53;;;27.10;32.70;;;;;;5055632;28;20513;-89
2022/05/31 11:25:05;;;;;;;2.30;2.07;;;27.10;33.70;;;;;;5051594;28;20551;-87
2022/05/31 11:27:43;;;;;;;4.03;2.23;;;27.10;33.50;;;;;;5082421;28;20803;-87
2022/05/31 11:30:21;;;;;;;2.47;1.90;;;26.90;33.20;;;;;;5057992;28;20455;-87
2022/05/31 11:33:17;;;;;;;2.43;2.23;;;26.80;32.10;;;;;;5075072;28;20513;-89
2022/05/31 11:35:56;;;;;;;2.30;2.10;;;26.80;31.30;;;;;;5055833;28;20436;-90
2022/05/31 11:38:31;;;;;;;2.50;2.30;;;26.80;31.00;;;;;;5063775;28;20443;-88
2022/05/31 11:41:07;;;;;;;2.40;2.17;;;26.70;33.00;;;;;;5039101;28;20455;-86
2022/05/31 11:44:20;;;;;;;1.93;1.83;;;26.90;32.90;;;;;;5057020;28;21018;-87
2022/05/31 11:46:56;;;;;;;2.60;2.40;;;26.80;33.70;;;;;;5090307;28;20470;-88
2022/05/31 11:49:34;;;;;;;3.17;2.10;;;26.50;33.10;;;;;;5061994;28;20473;-88
2022/05/31 11:52:13;;;;;;;3.50;2.47;;;26.70;33.30;;;;;;5088719;28;20505;-87
2022/05/31 11:58:05;;;;;;;2.03;1.93;;;26.90;33.20;;;;;;5082050;28;20455;-87
2022/05/31 12:00:37;;;;;;;2.00;1.80;;;26.70;32.90;;;;;;5088359;28;20475;-89
2022/05/31 12:03:11;;;;;;;2.43;1.70;;;26.50;31.00;;;;;;5058763;28;20460;-89
2022/05/31 12:05:44;;;;;;;4.67;2.17;;;26.60;31.70;;;;;;5070398;28;20476;-88
2022/05/31 12:08:17;;;;;;;2.20;2.00;;;26.70;30.90;;;;;;5072409;28;20447;-88
2022/05/31 12:10:50;;;;;;;2.33;1.80;;;26.90;30.40;;;;;;5088335;28;20454;-88
2022/05/31 12:13:20;;;;;;;1.70;1.60;;;27.20;30.90;;;;;;5057173;28;20534;-88
2022/05/31 12:15:51;;;;;;;7.00;1.83;;;27.10;29.30;;;;;;5085047;28;20436;-87
2022/05/31 12:18:24;;;;;;;2.13;1.93;;;26.70;28.50;;;;;;5089449;28;20480;-89
2022/05/31 12:20:59;;;;;;;2.00;1.70;;;26.80;29.40;;;;;;5069553;28;20597;-86
2022/05/31 12:23:32;;;;;;;2.00;1.90;;;26.80;30.60;;;;;;5071726;28;21117;-90
2022/05/31 12:26:01;;;;;;;2.70;1.70;;;26.80;30.00;;;;;;5078871;28;20526;-89
2022/05/31 12:28:38;;;;;;;1.77;1.63;;;26.40;30.30;;;;;;5057076;28;20443;-89
2022/05/31 12:31:13;;;;;;;2.07;1.40;;;26.20;29.90;;;;;;5088067;28;20888;-88
2022/05/31 12:33:43;;;;;;;1.67;1.57;;;26.20;29.30;;;;;;5070846;28;20445;-88
2022/05/31 12:36:12;;;;;;;3.70;1.57;;;26.00;28.60;;;;;;5074101;28;21049;-88
2022/05/31 12:38:55;;;;;;;2.00;1.33;;;26.00;29.00;;;;;;5091014;28;20481;-88
2022/05/31 12:41:37;;;;;;;3.37;1.60;;;25.90;26.60;;;;;;5088839;28;20458;-89
2022/05/31 12:44:14;;;;;;;1.67;1.57;;;26.10;25.90;;;;;;5045587;28;20458;-89
2022/05/31 12:46:45;;;;;;;1.80;1.70;;;26.30;25.70;;;;;;5047960;28;20444;-87
2022/05/31 12:49:23;;;;;;;5.70;1.80;;;26.10;25.70;;;;;;5074474;28;20895;-90
2022/05/31 12:52:34;;;;;;;2.10;1.40;;;25.70;27.10;;;;;;5089134;28;20443;-89
2022/05/31 12:55:01;;;;;;;2.50;1.57;;;26.00;27.10;;;;;;5070120;28;20530;-89
2022/05/31 13:00:29;;;;;;;2.23;1.60;;;26.00;28.00;;;;;;5066668;28;20578;-88
2022/05/31 13:02:57;;;;;;;1.70;1.60;;;26.00;27.90;;;;;;5045102;28;20438;-89
2022/05/31 13:05:40;;;;;;;1.40;1.30;;;26.10;28.40;;;;;;5072773;28;20479;-89
2022/05/31 13:08:16;;;;;;;2.03;1.60;;;26.10;28.00;;;;;;5062821;28;20538;-90
2022/05/31 13:21:57;;;;;;;2.53;1.50;;;26.70;25.90;;;;;;5053303;28;20917;-89
2022/05/31 13:24:26;;;;;;;1.40;1.30;;;27.20;24.80;;;;;;5073800;28;20469;-91
2022/05/31 13:26:54;;;;;;;2.67;1.60;;;27.50;23.50;;;;;;5063256;28;21242;-89
2022/05/31 13:29:21;;;;;;;2.20;1.50;;;27.40;22.00;;;;;;5062196;28;20470;-89
2022/05/31 13:31:55;;;;;;;7.17;1.53;;;27.50;21.80;;;;;;5080585;28;20453;-91
2022/05/31 13:34:30;;;;;;;2.40;1.63;;;27.20;21.20;;;;;;5100716;28;20450;-91
2022/05/31 13:36:59;;;;;;;2.53;1.40;;;27.10;22.20;;;;;;5101495;28;20467;-89
2022/05/31 13:39:27;;;;;;;5.40;1.50;;;27.10;22.90;;;;;;5101777;28;20489;-90
2022/05/31 13:41:58;;;;;;;1.87;1.40;;;27.30;22.20;;;;;;5096442;28;20447;-89
2022/05/31 13:44:30;;;;;;;1.47;1.37;;;27.50;22.60;;;;;;5082311;28;20453;-92
2022/05/31 13:47:02;;;;;;;2.60;1.60;;;27.60;21.70;;;;;;5068539;28;20461;-89
2022/05/31 13:49:36;;;;;;;3.03;1.60;;;27.70;22.30;;;;;;5082108;28;20478;-92
2022/05/31 13:52:06;;;;;;;2.13;1.10;;;28.00;22.80;;;;;;5097212;28;20453;-88
2022/05/31 13:54:42;;;;;;;7.50;2.07;;;27.60;21.40;;;;;;5079587;28;20442;-89
2022/05/31 13:57:13;;;;;;;2.00;1.60;;;27.80;22.20;;;;;;5097475;28;20447;-88
2022/05/31 13:59:47;;;;;;;1.83;1.60;;;27.80;21.60;;;;;;5096000;28;20517;-89
2022/05/31 14:02:20;;;;;;;2.40;1.60;;;27.40;21.50;;;;;;5058598;28;20497;-90